Time;durP1;ratioP1;P1;durP2;ratioP2;P2;SDS_P1;SDS_P2;PMS_P1;PMS_P2;Temp;Humidity;BMP_temperature;BMP_pressure;BME280_temperature;BME280_humidity;BME280_pressure;Samples;Min_cycle;Max_cycle;Signal;HPM_P1;HPM_P2
2023/05/20 00:01:38;;;;;;;12.98;3.58;;;;;;;;;;4935338;28;20051;-64
2023/05/20 00:04:08;;;;;;;17.00;3.50;;;;;;;;;;4905530;29;20080;-64
2023/05/20 00:06:39;;;;;;;13.57;3.50;;;;;;;;;;4923045;29;20048;-64
2023/05/20 00:09:09;;;;;;;10.90;3.20;;;;;;;;;;4882718;29;20057;-64
2023/05/20 00:11:40;;;;;;;13.45;3.67;;;;;;;;;;4873204;29;20533;-64
2023/05/20 00:14:10;;;;;;;11.15;3.83;;;;;;;;;;4888640;29;20063;-63
2023/05/20 00:16:41;;;;;;;14.77;4.10;;;;;;;;;;4838652;29;20448;-63
2023/05/20 00:19:12;;;;;;;11.90;4.72;;;;;;;;;;4861913;29;20064;-63
2023/05/20 00:21:42;;;;;;;11.32;4.13;;;;;;;;;;4874200;29;20045;-62
2023/05/20 00:24:13;;;;;;;11.55;3.85;;;;;;;;;;4892652;29;20049;-63
2023/05/20 00:26:43;;;;;;;16.73;4.00;;;;;;;;;;4872716;29;20068;-63
2023/05/20 00:29:14;;;;;;;9.88;3.53;;;;;;;;;;4910455;29;20112;-63
2023/05/20 00:31:49;;;;;;;14.77;3.63;;;;;;;;;;4916042;29;20051;-63
2023/05/20 00:34:20;;;;;;;16.13;4.15;;;;;;;;;;4915962;29;20052;-63
2023/05/20 00:36:51;;;;;;;13.82;3.50;;;;;;;;;;4915604;29;20429;-63
2023/05/20 00:39:22;;;;;;;16.92;4.65;;;;;;;;;;4884699;29;20753;-64
2023/05/20 00:41:55;;;;;;;16.85;5.15;;;;;;;;;;4936479;28;20416;-62
2023/05/20 00:44:26;;;;;;;17.67;5.32;;;;;;;;;;4938206;28;20051;-64
2023/05/20 00:46:57;;;;;;;11.32;4.78;;;;;;;;;;4911884;29;20055;-63
2023/05/20 00:49:27;;;;;;;21.33;6.43;;;;;;;;;;4872507;29;20058;-66
2023/05/20 00:51:59;;;;;;;30.50;11.57;;;;;;;;;;4934527;29;20051;-63
2023/05/20 00:54:50;;;;;;;33.97;10.90;;;;;;;;;;4849868;29;20051;-65
2023/05/20 00:57:21;;;;;;;17.75;7.18;;;;;;;;;;4842380;29;20049;-63
2023/05/20 00:59:53;;;;;;;17.27;6.88;;;;;;;;;;4878039;29;20560;-64
2023/05/20 01:02:24;;;;;;;17.65;5.95;;;;;;;;;;4896464;29;20057;-63
2023/05/20 01:04:56;;;;;;;22.35;5.50;;;;;;;;;;4864991;29;20055;-62
2023/05/20 01:07:27;;;;;;;14.90;5.50;;;;;;;;;;4896603;29;20068;-63
2023/05/20 01:09:58;;;;;;;16.42;4.57;;;;;;;;;;4848734;29;20060;-63
2023/05/20 01:12:35;;;;;;;12.93;4.00;;;;;;;;;;4859399;29;20058;-63
2023/05/20 01:15:09;;;;;;;11.68;3.55;;;;;;;;;;4872944;29;20094;-63
2023/05/20 01:17:50;;;;;;;9.85;4.10;;;;;;;;;;4896274;29;20621;-63
2023/05/20 01:20:21;;;;;;;13.55;4.65;;;;;;;;;;4896064;29;20089;-65
2023/05/20 01:22:56;;;;;;;10.93;3.83;;;;;;;;;;4849150;29;20417;-66
2023/05/20 01:25:26;;;;;;;11.30;4.07;;;;;;;;;;4868157;29;20053;-63
2023/05/20 01:27:58;;;;;;;11.70;3.80;;;;;;;;;;4837940;29;20407;-64
2023/05/20 01:30:36;;;;;;;13.73;4.90;;;;;;;;;;4858481;29;20065;-65
2023/05/20 01:33:11;;;;;;;14.52;3.60;;;;;;;;;;4849191;29;20175;-63
2023/05/20 01:35:42;;;;;;;18.08;4.28;;;;;;;;;;4846091;29;20050;-64
2023/05/20 01:38:15;;;;;;;8.63;3.78;;;;;;;;;;4846943;29;20069;-64
2023/05/20 01:40:47;;;;;;;13.30;3.88;;;;;;;;;;4854307;29;20065;-63
2023/05/20 01:43:18;;;;;;;9.82;3.35;;;;;;;;;;4873105;29;20064;-63
2023/05/20 01:45:49;;;;;;;14.90;3.75;;;;;;;;;;4875566;29;20048;-64
2023/05/20 01:48:21;;;;;;;14.32;4.43;;;;;;;;;;4861953;29;20375;-64
2023/05/20 01:50:52;;;;;;;20.00;4.97;;;;;;;;;;4885394;29;20568;-64
2023/05/20 01:53:23;;;;;;;14.23;4.72;;;;;;;;;;4914466;29;20052;-65
2023/05/20 01:55:53;;;;;;;23.65;4.72;;;;;;;;;;4871977;29;20064;-63
2023/05/20 01:58:24;;;;;;;9.70;4.10;;;;;;;;;;4854970;29;20058;-65
2023/05/20 02:00:54;;;;;;;24.83;4.43;;;;;;;;;;4839876;29;20062;-63
2023/05/20 02:03:25;;;;;;;12.27;4.22;;;;;;;;;;4876350;29;20056;-64
2023/05/20 02:05:55;;;;;;;8.88;3.50;;;;;;;;;;4876497;29;20112;-63
2023/05/20 02:08:26;;;;;;;12.07;3.83;;;;;;;;;;4875084;29;20064;-63
2023/05/20 02:10:57;;;;;;;13.52;4.07;;;;;;;;;;4858029;29;20402;-63
2023/05/20 02:13:28;;;;;;;12.18;3.50;;;;;;;;;;4839564;29;20058;-63
2023/05/20 02:15:59;;;;;;;14.80;5.28;;;;;;;;;;4839460;29;20054;-64
2023/05/20 02:18:31;;;;;;;14.60;4.70;;;;;;;;;;4809136;29;20066;-63
2023/05/20 02:21:05;;;;;;;17.40;4.35;;;;;;;;;;4802228;29;20059;-65
2023/05/20 02:23:35;;;;;;;11.77;3.85;;;;;;;;;;4785000;29;20071;-64
2023/05/20 02:26:06;;;;;;;13.77;5.75;;;;;;;;;;4803885;29;20058;-64
2023/05/20 02:28:40;;;;;;;20.27;5.47;;;;;;;;;;4839206;29;20066;-63
2023/05/20 02:31:10;;;;;;;17.42;5.15;;;;;;;;;;4823964;29;20065;-64
2023/05/20 02:33:41;;;;;;;10.57;5.53;;;;;;;;;;4839357;29;20062;-64
2023/05/20 02:36:11;;;;;;;13.13;5.78;;;;;;;;;;4849383;29;20053;-63
2023/05/20 02:38:41;;;;;;;21.17;5.32;;;;;;;;;;4857771;29;20592;-65
2023/05/20 02:41:12;;;;;;;17.42;5.00;;;;;;;;;;4867710;29;20064;-64
2023/05/20 02:43:44;;;;;;;11.05;4.53;;;;;;;;;;4842510;29;20061;-64
2023/05/20 02:46:16;;;;;;;13.13;4.05;;;;;;;;;;4842350;29;20414;-64
2023/05/20 02:48:47;;;;;;;10.30;4.05;;;;;;;;;;4838749;29;20050;-64
2023/05/20 02:51:17;;;;;;;11.20;3.85;;;;;;;;;;4817461;29;20055;-64
2023/05/20 02:53:48;;;;;;;10.98;3.90;;;;;;;;;;4823169;29;20050;-63
2023/05/20 02:56:21;;;;;;;11.32;4.65;;;;;;;;;;4820620;29;20058;-63
2023/05/20 02:58:51;;;;;;;12.45;4.25;;;;;;;;;;4859983;29;20112;-65
2023/05/20 03:01:23;;;;;;;11.75;4.30;;;;;;;;;;4860871;29;20053;-63
2023/05/20 03:03:54;;;;;;;8.10;3.95;;;;;;;;;;4857147;29;20431;-63
2023/05/20 03:06:25;;;;;;;15.05;4.45;;;;;;;;;;4856919;29;20069;-63
2023/05/20 03:08:55;;;;;;;12.25;3.58;;;;;;;;;;4841813;29;20054;-63
2023/05/20 03:11:30;;;;;;;10.60;3.72;;;;;;;;;;4842535;29;20050;-63
2023/05/20 03:14:00;;;;;;;9.18;4.07;;;;;;;;;;4814567;29;20070;-63
2023/05/20 03:16:34;;;;;;;7.47;3.17;;;;;;;;;;4757525;29;20055;-63
2023/05/20 03:19:04;;;;;;;13.02;3.85;;;;;;;;;;4822590;29;20062;-63
2023/05/20 03:21:35;;;;;;;15.02;4.10;;;;;;;;;;4867709;29;20061;-66
2023/05/20 03:24:06;;;;;;;12.07;4.22;;;;;;;;;;4875285;29;20409;-63
2023/05/20 03:26:41;;;;;;;10.68;3.90;;;;;;;;;;4874865;29;20063;-63
2023/05/20 03:29:12;;;;;;;11.82;3.53;;;;;;;;;;4852937;29;20065;-63
2023/05/20 03:31:43;;;;;;;11.38;3.50;;;;;;;;;;4837891;29;20519;-65
2023/05/20 03:34:13;;;;;;;15.68;4.40;;;;;;;;;;4849414;29;20442;-63
2023/05/20 03:36:46;;;;;;;9.27;4.07;;;;;;;;;;4826783;29;20054;-65
2023/05/20 03:39:16;;;;;;;9.20;4.15;;;;;;;;;;4820246;29;20550;-63
2023/05/20 03:41:46;;;;;;;10.55;3.30;;;;;;;;;;4798730;29;20051;-63
2023/05/20 03:44:18;;;;;;;14.75;3.67;;;;;;;;;;4819872;29;20055;-64
2023/05/20 03:46:51;;;;;;;8.00;3.80;;;;;;;;;;4804687;29;20054;-63
2023/05/20 03:49:22;;;;;;;10.02;3.67;;;;;;;;;;4815409;29;20054;-63
2023/05/20 03:51:52;;;;;;;10.55;3.70;;;;;;;;;;4776466;30;20063;-63
2023/05/20 03:54:22;;;;;;;10.73;4.43;;;;;;;;;;4768358;30;20100;-64
2023/05/20 03:56:55;;;;;;;11.23;4.72;;;;;;;;;;4783356;30;20070;-63
2023/05/20 03:59:26;;;;;;;12.13;4.60;;;;;;;;;;4791483;29;20055;-63
2023/05/20 04:01:56;;;;;;;9.52;4.53;;;;;;;;;;4808275;29;20063;-64
2023/05/20 04:04:26;;;;;;;12.05;4.75;;;;;;;;;;4786476;29;20061;-65
2023/05/20 04:07:00;;;;;;;11.23;4.18;;;;;;;;;;4801295;29;20062;-64
2023/05/20 04:09:31;;;;;;;11.60;4.13;;;;;;;;;;4786770;29;20049;-63
2023/05/20 04:12:02;;;;;;;13.00;4.40;;;;;;;;;;4822384;29;20077;-64
2023/05/20 04:14:35;;;;;;;11.43;3.72;;;;;;;;;;4814717;29;20082;-63
2023/05/20 04:17:08;;;;;;;9.43;3.97;;;;;;;;;;4767916;30;20480;-64
2023/05/20 04:19:38;;;;;;;9.75;4.15;;;;;;;;;;4801210;29;20059;-63
2023/05/20 04:22:10;;;;;;;9.23;4.15;;;;;;;;;;4790701;29;20132;-64
2023/05/20 04:24:41;;;;;;;8.30;3.50;;;;;;;;;;4791247;29;20470;-65
2023/05/20 04:27:12;;;;;;;12.27;3.83;;;;;;;;;;4837311;29;20057;-64
2023/05/20 04:29:46;;;;;;;11.43;4.15;;;;;;;;;;4826738;29;20062;-63
2023/05/20 04:32:20;;;;;;;11.70;4.03;;;;;;;;;;4819272;29;20066;-63
2023/05/20 04:34:54;;;;;;;10.98;3.92;;;;;;;;;;4819860;29;20062;-63
2023/05/20 04:37:28;;;;;;;13.93;4.50;;;;;;;;;;4795777;29;20065;-63
2023/05/20 04:39:58;;;;;;;8.70;3.92;;;;;;;;;;4837305;29;20096;-63
2023/05/20 04:42:29;;;;;;;17.25;4.38;;;;;;;;;;4821813;29;20422;-63
2023/05/20 04:45:04;;;;;;;9.40;3.90;;;;;;;;;;4837312;29;20061;-63
2023/05/20 04:47:37;;;;;;;8.52;3.33;;;;;;;;;;4791893;29;20393;-63
2023/05/20 04:50:09;;;;;;;10.85;4.05;;;;;;;;;;4794788;29;20060;-63
2023/05/20 04:52:42;;;;;;;9.10;3.20;;;;;;;;;;4791377;29;20082;-63
2023/05/20 04:55:14;;;;;;;12.30;3.97;;;;;;;;;;4780270;29;20433;-63
2023/05/20 04:57:45;;;;;;;9.75;3.63;;;;;;;;;;4797599;29;20083;-64
2023/05/20 05:00:16;;;;;;;9.25;3.58;;;;;;;;;;4783554;30;20516;-64
2023/05/20 05:02:47;;;;;;;16.77;4.13;;;;;;;;;;4809343;29;20059;-64
2023/05/20 05:05:17;;;;;;;8.68;3.88;;;;;;;;;;4818761;29;20547;-64
2023/05/20 05:07:48;;;;;;;10.57;4.20;;;;;;;;;;4804834;29;20544;-65
2023/05/20 05:10:20;;;;;;;11.77;4.22;;;;;;;;;;4837210;29;20070;-63
2023/05/20 05:12:53;;;;;;;12.90;3.47;;;;;;;;;;4837226;29;20053;-63
2023/05/20 05:15:24;;;;;;;8.93;3.85;;;;;;;;;;4857853;29;20068;-64
2023/05/20 05:17:56;;;;;;;15.82;4.20;;;;;;;;;;4813963;29;20507;-63
2023/05/20 05:20:26;;;;;;;18.02;4.10;;;;;;;;;;4814903;29;20055;-63
2023/05/20 05:22:56;;;;;;;9.48;3.58;;;;;;;;;;4811192;29;20063;-63
2023/05/20 05:25:27;;;;;;;9.18;3.58;;;;;;;;;;4829186;29;20058;-63
2023/05/20 05:28:00;;;;;;;9.48;3.75;;;;;;;;;;4840111;29;20061;-64
2023/05/20 05:30:30;;;;;;;11.50;4.30;;;;;;;;;;4840432;29;20061;-63
2023/05/20 05:33:01;;;;;;;10.80;4.35;;;;;;;;;;4824818;29;20062;-66
2023/05/20 05:35:32;;;;;;;11.75;4.05;;;;;;;;;;4830578;29;20089;-63
2023/05/20 05:38:03;;;;;;;8.98;4.18;;;;;;;;;;4840024;29;20046;-64
2023/05/20 05:40:35;;;;;;;9.25;3.83;;;;;;;;;;4830118;29;20407;-63
2023/05/20 05:43:05;;;;;;;13.38;4.80;;;;;;;;;;4826949;29;20162;-64
2023/05/20 05:45:36;;;;;;;11.40;3.83;;;;;;;;;;4821598;29;21225;-63
2023/05/20 05:48:07;;;;;;;8.57;3.88;;;;;;;;;;4803285;29;20538;-63
2023/05/20 05:50:38;;;;;;;9.02;3.50;;;;;;;;;;4808537;29;20059;-64
2023/05/20 05:53:09;;;;;;;10.95;4.15;;;;;;;;;;4803355;29;20059;-63
2023/05/20 05:55:42;;;;;;;11.48;3.53;;;;;;;;;;4824923;29;20057;-65
2023/05/20 05:58:12;;;;;;;11.95;3.72;;;;;;;;;;4838350;29;20059;-63
2023/05/20 06:00:42;;;;;;;13.63;4.07;;;;;;;;;;4821267;29;20168;-63
2023/05/20 06:03:13;;;;;;;9.68;3.47;;;;;;;;;;4848937;29;20065;-64
2023/05/20 06:05:46;;;;;;;8.25;3.67;;;;;;;;;;4848719;29;20582;-63
2023/05/20 06:08:16;;;;;;;10.73;3.92;;;;;;;;;;4834479;29;20057;-63
2023/05/20 06:10:49;;;;;;;11.30;4.05;;;;;;;;;;4841334;29;20502;-63
2023/05/20 06:13:20;;;;;;;13.07;5.22;;;;;;;;;;4858198;29;20399;-64
2023/05/20 06:15:50;;;;;;;10.15;3.95;;;;;;;;;;4857757;29;20706;-63
2023/05/20 06:18:21;;;;;;;10.95;4.20;;;;;;;;;;4857890;29;20065;-64
2023/05/20 06:20:58;;;;;;;9.40;4.45;;;;;;;;;;4857856;29;20526;-63
2023/05/20 06:23:28;;;;;;;10.43;3.75;;;;;;;;;;4847280;29;20074;-64
2023/05/20 06:26:01;;;;;;;9.40;3.90;;;;;;;;;;4864867;29;20069;-63
2023/05/20 06:28:32;;;;;;;9.40;3.92;;;;;;;;;;4807093;29;20106;-63
2023/05/20 06:31:03;;;;;;;9.35;3.65;;;;;;;;;;4802526;29;20408;-64
2023/05/20 06:33:35;;;;;;;12.85;3.67;;;;;;;;;;4810284;29;20393;-63
2023/05/20 06:36:12;;;;;;;11.32;3.92;;;;;;;;;;4806541;29;20072;-63
2023/05/20 06:38:42;;;;;;;9.85;3.60;;;;;;;;;;4809283;29;20050;-64
2023/05/20 06:41:15;;;;;;;10.98;4.55;;;;;;;;;;4817227;29;20058;-65
2023/05/20 06:43:46;;;;;;;12.98;4.05;;;;;;;;;;4802705;29;20058;-64
2023/05/20 06:46:35;;;;;;;6.88;3.53;;;;;;;;;;4803018;29;20062;-64
2023/05/20 06:49:10;;;;;;;11.40;4.60;;;;;;;;;;4788504;29;20062;-64
2023/05/20 06:51:42;;;;;;;10.75;4.40;;;;;;;;;;4802180;29;20058;-64
2023/05/20 06:54:13;;;;;;;11.43;4.05;;;;;;;;;;4760272;29;20422;-63
2023/05/20 06:56:44;;;;;;;9.50;4.07;;;;;;;;;;4801899;29;20058;-63
2023/05/20 06:59:15;;;;;;;9.60;3.55;;;;;;;;;;4802151;29;20539;-63
2023/05/20 07:01:46;;;;;;;8.00;3.60;;;;;;;;;;4806657;29;20085;-63
2023/05/20 07:04:16;;;;;;;11.52;3.67;;;;;;;;;;4788885;29;20059;-62
2023/05/20 07:06:47;;;;;;;8.88;3.47;;;;;;;;;;4762216;30;20053;-64
2023/05/20 07:09:17;;;;;;;8.63;4.03;;;;;;;;;;4755717;30;20074;-63
2023/05/20 07:11:47;;;;;;;9.00;3.63;;;;;;;;;;4784251;30;20201;-64
2023/05/20 07:14:19;;;;;;;8.35;3.70;;;;;;;;;;4820268;29;20566;-63
2023/05/20 07:16:49;;;;;;;8.25;4.00;;;;;;;;;;4807753;29;20075;-63
2023/05/20 07:19:20;;;;;;;11.60;4.30;;;;;;;;;;4820167;29;20050;-63
2023/05/20 07:21:50;;;;;;;11.02;4.30;;;;;;;;;;4838011;29;20054;-63
2023/05/20 07:24:35;;;;;;;9.80;3.88;;;;;;;;;;4825083;29;20050;-63
2023/05/20 07:27:06;;;;;;;15.30;4.30;;;;;;;;;;4827246;29;20046;-63
2023/05/20 07:29:37;;;;;;;9.20;3.53;;;;;;;;;;4820538;29;20059;-62
2023/05/20 07:32:09;;;;;;;8.85;3.55;;;;;;;;;;4783918;29;20066;-63
2023/05/20 07:34:42;;;;;;;13.52;4.30;;;;;;;;;;4819941;29;20058;-63
2023/05/20 07:37:13;;;;;;;7.13;3.38;;;;;;;;;;4819487;29;20411;-64
2023/05/20 07:39:44;;;;;;;11.25;4.45;;;;;;;;;;4801626;29;20062;-63
2023/05/20 07:42:14;;;;;;;9.82;4.10;;;;;;;;;;4801812;29;20063;-63
2023/05/20 07:44:48;;;;;;;12.32;3.75;;;;;;;;;;4831379;29;20064;-64
2023/05/20 07:47:19;;;;;;;9.10;3.55;;;;;;;;;;4889615;29;20048;-64
2023/05/20 07:49:50;;;;;;;8.07;3.50;;;;;;;;;;4856382;29;20053;-63
2023/05/20 07:52:21;;;;;;;10.48;3.38;;;;;;;;;;4855904;29;20079;-65
2023/05/20 07:54:51;;;;;;;9.73;3.72;;;;;;;;;;4844698;29;20068;-63
2023/05/20 07:57:22;;;;;;;9.25;3.90;;;;;;;;;;4825782;29;20062;-62
2023/05/20 07:59:53;;;;;;;10.02;3.90;;;;;;;;;;4811096;29;20059;-64
2023/05/20 08:02:23;;;;;;;9.25;3.20;;;;;;;;;;4848611;29;20057;-63
2023/05/20 08:04:56;;;;;;;9.05;3.67;;;;;;;;;;4809253;29;20065;-63
2023/05/20 08:07:26;;;;;;;7.93;3.47;;;;;;;;;;4791147;29;20556;-63
2023/05/20 08:09:57;;;;;;;9.07;3.83;;;;;;;;;;4801104;29;20051;-63
2023/05/20 08:12:28;;;;;;;11.23;5.20;;;;;;;;;;4809852;29;20534;-63
2023/05/20 08:14:59;;;;;;;7.60;3.45;;;;;;;;;;4813219;29;20051;-64
2023/05/20 08:17:30;;;;;;;9.82;3.72;;;;;;;;;;4792422;29;20051;-63
2023/05/20 08:20:01;;;;;;;8.55;3.63;;;;;;;;;;4782912;29;20062;-63
2023/05/20 08:22:31;;;;;;;9.40;3.65;;;;;;;;;;4765202;29;20099;-63
2023/05/20 08:25:01;;;;;;;9.07;3.33;;;;;;;;;;4747830;30;20067;-63
2023/05/20 08:27:32;;;;;;;7.55;3.63;;;;;;;;;;4761747;30;20059;-64
2023/05/20 08:30:08;;;;;;;7.18;3.40;;;;;;;;;;4774272;29;20056;-63
2023/05/20 08:32:39;;;;;;;9.23;3.53;;;;;;;;;;4767903;29;20058;-66
2023/05/20 08:35:11;;;;;;;9.20;3.60;;;;;;;;;;4759160;30;20055;-63
2023/05/20 08:37:41;;;;;;;7.80;2.88;;;;;;;;;;4768287;29;20070;-62
2023/05/20 08:40:12;;;;;;;8.35;3.35;;;;;;;;;;4755637;30;20083;-63
2023/05/20 08:42:43;;;;;;;8.77;3.35;;;;;;;;;;4765050;30;20204;-63
2023/05/20 08:45:18;;;;;;;8.20;3.25;;;;;;;;;;4740790;30;20052;-62
2023/05/20 08:47:49;;;;;;;9.52;3.83;;;;;;;;;;4792900;29;20065;-63
2023/05/20 08:50:21;;;;;;;10.32;7.22;;;;;;;;;;4803381;29;20433;-64
2023/05/20 08:52:51;;;;;;;11.43;3.53;;;;;;;;;;4829596;29;20070;-63
2023/05/20 08:55:30;;;;;;;6.82;3.33;;;;;;;;;;4812676;29;20063;-62
2023/05/20 08:58:01;;;;;;;6.88;3.35;;;;;;;;;;4804788;29;20563;-63
2023/05/20 09:00:32;;;;;;;10.88;3.72;;;;;;;;;;4815811;29;20054;-64
2023/05/20 09:03:03;;;;;;;11.02;3.67;;;;;;;;;;4822433;29;20070;-63
2023/05/20 09:05:33;;;;;;;12.52;3.65;;;;;;;;;;4814653;29;20085;-63
2023/05/20 09:08:11;;;;;;;7.70;3.13;;;;;;;;;;4858584;29;20402;-62
2023/05/20 09:10:41;;;;;;;7.03;3.08;;;;;;;;;;4865833;29;20048;-63
2023/05/20 09:13:12;;;;;;;10.27;4.20;;;;;;;;;;4896379;29;20048;-64
2023/05/20 09:15:42;;;;;;;8.32;3.30;;;;;;;;;;4866272;29;20056;-63
2023/05/20 09:18:12;;;;;;;10.15;3.42;;;;;;;;;;4858897;29;20053;-63
2023/05/20 09:20:45;;;;;;;9.63;3.83;;;;;;;;;;4871122;29;20509;-63
2023/05/20 09:23:22;;;;;;;13.05;3.58;;;;;;;;;;4902106;29;20059;-62
2023/05/20 09:25:52;;;;;;;12.52;4.70;;;;;;;;;;4916748;29;20103;-63
2023/05/20 09:28:27;;;;;;;8.95;3.80;;;;;;;;;;4921619;29;20051;-63
2023/05/20 09:31:00;;;;;;;12.43;3.67;;;;;;;;;;4922080;29;20066;-63
2023/05/20 09:33:31;;;;;;;12.13;4.28;;;;;;;;;;4934014;29;20064;-63
2023/05/20 09:36:08;;;;;;;9.45;3.75;;;;;;;;;;4934082;29;20079;-63
2023/05/20 09:38:39;;;;;;;9.25;3.80;;;;;;;;;;4918523;29;20563;-62
2023/05/20 09:41:14;;;;;;;7.65;3.45;;;;;;;;;;4934026;29;20058;-63
2023/05/20 09:43:44;;;;;;;8.13;3.60;;;;;;;;;;4934057;29;20511;-62
2023/05/20 09:46:16;;;;;;;8.02;3.83;;;;;;;;;;4934163;29;20055;-63
2023/05/20 09:48:46;;;;;;;8.13;3.55;;;;;;;;;;4933780;29;20059;-62
2023/05/20 09:51:17;;;;;;;7.45;3.40;;;;;;;;;;4918018;29;20051;-63
2023/05/20 09:53:48;;;;;;;9.13;3.75;;;;;;;;;;4933539;29;20052;-64
2023/05/20 09:56:23;;;;;;;10.98;4.15;;;;;;;;;;4940597;29;20082;-63
2023/05/20 09:58:57;;;;;;;10.13;4.00;;;;;;;;;;4937220;29;20063;-62
2023/05/20 10:01:28;;;;;;;11.80;3.60;;;;;;;;;;4937132;29;20059;-61
2023/05/20 10:04:00;;;;;;;9.45;3.58;;;;;;;;;;4952386;29;20082;-61
2023/05/20 10:06:44;;;;;;;7.40;3.20;;;;;;;;;;4936621;29;20062;-62
2023/05/20 10:09:18;;;;;;;10.80;3.95;;;;;;;;;;4952246;29;20074;-62
2023/05/20 10:11:55;;;;;;;9.57;3.65;;;;;;;;;;4966857;28;20158;-62
2023/05/20 10:14:40;;;;;;;12.45;4.00;;;;;;;;;;4958744;28;20062;-61
2023/05/20 10:17:19;;;;;;;11.63;3.90;;;;;;;;;;4958435;28;20050;-63
2023/05/20 10:19:50;;;;;;;8.93;3.83;;;;;;;;;;4958340;28;20053;-61
2023/05/20 10:22:32;;;;;;;10.60;3.55;;;;;;;;;;4958480;28;20054;-62
2023/05/20 10:25:09;;;;;;;13.40;3.80;;;;;;;;;;4971445;28;20050;-63
2023/05/20 10:27:46;;;;;;;8.50;3.30;;;;;;;;;;4975850;28;20545;-63
2023/05/20 10:30:18;;;;;;;10.85;3.55;;;;;;;;;;4902408;28;20039;-62
2023/05/20 10:32:55;;;;;;;10.45;3.50;;;;;;;;;;4961299;28;20054;-63
2023/05/20 10:35:26;;;;;;;12.65;3.85;;;;;;;;;;4962677;28;20526;-62
2023/05/20 10:38:10;;;;;;;9.15;3.70;;;;;;;;;;4954962;28;20055;-64
2023/05/20 10:40:41;;;;;;;14.43;3.92;;;;;;;;;;4950662;28;20055;-62
2023/05/20 10:43:28;;;;;;;9.38;4.53;;;;;;;;;;4920692;29;20055;-62
2023/05/20 10:45:58;;;;;;;14.18;5.13;;;;;;;;;;4951657;28;20075;-63
2023/05/20 10:48:35;;;;;;;16.52;4.55;;;;;;;;;;4932214;29;20047;-62
2023/05/20 10:51:13;;;;;;;11.70;5.13;;;;;;;;;;4916566;29;20075;-61
2023/05/20 10:53:46;;;;;;;10.20;4.28;;;;;;;;;;4902494;29;20055;-62
2023/05/20 10:56:21;;;;;;;9.18;4.07;;;;;;;;;;4900808;29;20563;-62
2023/05/20 10:58:53;;;;;;;16.63;4.60;;;;;;;;;;4932225;29;20062;-62
2023/05/20 11:01:26;;;;;;;11.23;4.30;;;;;;;;;;4885220;29;20168;-62
2023/05/20 11:03:59;;;;;;;14.25;5.07;;;;;;;;;;4932233;29;20408;-62
2023/05/20 11:06:30;;;;;;;17.25;6.10;;;;;;;;;;4932177;29;20054;-62
2023/05/20 11:09:05;;;;;;;14.07;6.50;;;;;;;;;;4950026;28;20452;-63
2023/05/20 11:11:37;;;;;;;14.02;5.88;;;;;;;;;;4903306;28;20523;-62
2023/05/20 11:14:12;;;;;;;15.80;6.45;;;;;;;;;;4919691;28;20104;-63
2023/05/20 11:16:42;;;;;;;13.48;6.22;;;;;;;;;;4919582;28;20130;-63
2023/05/20 11:19:15;;;;;;;15.10;5.88;;;;;;;;;;4884766;29;20096;-64
2023/05/20 11:21:48;;;;;;;12.93;5.20;;;;;;;;;;4912683;29;20048;-63
2023/05/20 11:24:28;;;;;;;12.48;5.85;;;;;;;;;;4871134;29;20053;-63
2023/05/20 11:27:00;;;;;;;17.10;6.43;;;;;;;;;;4890291;29;20057;-62
2023/05/20 11:29:31;;;;;;;13.35;5.70;;;;;;;;;;4893923;29;20063;-62
2023/05/20 11:32:01;;;;;;;13.30;6.00;;;;;;;;;;4847573;29;20060;-63
2023/05/20 11:34:36;;;;;;;14.48;6.20;;;;;;;;;;4878855;29;20048;-63
2023/05/20 11:37:10;;;;;;;15.88;7.20;;;;;;;;;;4864180;29;20059;-63
2023/05/20 11:39:40;;;;;;;20.85;6.88;;;;;;;;;;4908856;29;20049;-62
2023/05/20 11:42:11;;;;;;;15.38;7.07;;;;;;;;;;4893895;29;20052;-62
2023/05/20 11:44:44;;;;;;;12.52;6.35;;;;;;;;;;4912340;29;20052;-62
2023/05/20 11:47:14;;;;;;;14.18;6.22;;;;;;;;;;4912787;29;20413;-62
2023/05/20 11:49:48;;;;;;;;;;;;;;;;;;4893637;29;20407;-63
2023/05/20 11:52:18;;;;;;;15.63;5.65;;;;;;;;;;4893675;29;19924;-63
2023/05/20 11:54:53;;;;;;;14.27;5.28;;;;;;;;;;4895685;29;20421;-62
2023/05/20 11:57:23;;;;;;;10.77;5.60;;;;;;;;;;4862488;29;20057;-62
2023/05/20 11:59:54;;;;;;;13.25;5.60;;;;;;;;;;4862323;29;20061;-62
2023/05/20 12:02:24;;;;;;;14.43;5.68;;;;;;;;;;4917939;29;20063;-62
2023/05/20 12:04:54;;;;;;;13.18;5.43;;;;;;;;;;4930112;29;20051;-63
2023/05/20 12:07:25;;;;;;;13.73;6.15;;;;;;;;;;4930900;29;20062;-64
2023/05/20 12:09:56;;;;;;;12.63;5.63;;;;;;;;;;4915411;28;20051;-62
2023/05/20 12:12:26;;;;;;;12.20;5.68;;;;;;;;;;4935580;28;20047;-62
2023/05/20 12:14:56;;;;;;;23.80;11.40;;;;;;;;;;4917779;28;20070;-62
2023/05/20 12:17:27;;;;;;;14.77;7.18;;;;;;;;;;4950435;28;20055;-62
2023/05/20 12:19:57;;;;;;;16.90;6.90;;;;;;;;;;4949551;28;20531;-63
2023/05/20 12:22:27;;;;;;;29.85;14.15;;;;;;;;;;4971118;28;20054;-62
2023/05/20 12:24:57;;;;;;;21.40;10.07;;;;;;;;;;4992332;28;20046;-63
2023/05/20 12:27:29;;;;;;;16.88;7.00;;;;;;;;;;4977648;28;20502;-62
2023/05/20 12:29:59;;;;;;;13.68;5.97;;;;;;;;;;4996330;28;20061;-63
2023/05/20 12:32:31;;;;;;;13.88;6.05;;;;;;;;;;5013885;28;20402;-63
2023/05/20 12:35:01;;;;;;;14.80;5.53;;;;;;;;;;5014514;28;20060;-63
2023/05/20 12:37:32;;;;;;;12.52;5.32;;;;;;;;;;5022304;28;20533;-63
2023/05/20 12:40:07;;;;;;;15.88;6.63;;;;;;;;;;5019800;28;20049;-62
2023/05/20 12:42:40;;;;;;;13.00;6.25;;;;;;;;;;5024582;28;20056;-64
2023/05/20 12:45:12;;;;;;;13.23;5.97;;;;;;;;;;5014848;28;20045;-62
2023/05/20 12:47:42;;;;;;;20.33;5.82;;;;;;;;;;4976411;28;20053;-64
2023/05/20 12:50:13;;;;;;;10.68;5.13;;;;;;;;;;4992374;28;20058;-64
2023/05/20 12:52:43;;;;;;;14.70;6.72;;;;;;;;;;4992545;28;20062;-63
2023/05/20 12:55:14;;;;;;;107.00;44.28;;;;;;;;;;4959923;28;20050;-63
2023/05/20 12:57:45;;;;;;;15.73;7.80;;;;;;;;;;4949891;28;20050;-63
2023/05/20 13:00:16;;;;;;;21.35;7.25;;;;;;;;;;4953055;28;20051;-63
2023/05/20 13:02:46;;;;;;;16.08;6.93;;;;;;;;;;4913934;28;20066;-63
2023/05/20 13:05:17;;;;;;;58.55;24.17;;;;;;;;;;4952617;28;20459;-63
2023/05/20 13:07:48;;;;;;;16.63;9.05;;;;;;;;;;4920645;29;20040;-64
2023/05/20 13:10:18;;;;;;;15.68;7.32;;;;;;;;;;4952856;28;20047;-63
2023/05/20 13:12:48;;;;;;;24.80;15.00;;;;;;;;;;4943302;28;20047;-63
2023/05/20 13:15:19;;;;;;;16.42;8.73;;;;;;;;;;4951960;28;20066;-63
2023/05/20 13:17:49;;;;;;;18.92;8.30;;;;;;;;;;4937428;28;20051;-63
2023/05/20 13:20:19;;;;;;;19.80;10.00;;;;;;;;;;4913795;29;20559;-63
2023/05/20 13:22:51;;;;;;;20.13;9.68;;;;;;;;;;4934388;29;20071;-62
2023/05/20 13:25:21;;;;;;;19.27;7.20;;;;;;;;;;4887788;29;20059;-64
2023/05/20 13:27:51;;;;;;;16.88;7.90;;;;;;;;;;4883069;29;20048;-63
2023/05/20 13:30:22;;;;;;;24.85;10.43;;;;;;;;;;4912256;29;20052;-63
2023/05/20 13:32:52;;;;;;;20.55;10.63;;;;;;;;;;4914328;29;20048;-63
2023/05/20 13:35:23;;;;;;;14.73;6.93;;;;;;;;;;4917749;29;20047;-65
2023/05/20 13:37:53;;;;;;;19.08;6.40;;;;;;;;;;4924032;29;20056;-63
2023/05/20 13:40:24;;;;;;;15.02;6.93;;;;;;;;;;4926135;29;20051;-63
2023/05/20 13:42:55;;;;;;;14.50;6.63;;;;;;;;;;4917808;29;20067;-63
2023/05/20 13:45:26;;;;;;;18.23;7.45;;;;;;;;;;4923779;29;20047;-63
2023/05/20 13:47:56;;;;;;;15.32;6.53;;;;;;;;;;4932674;29;20047;-63
2023/05/20 13:50:27;;;;;;;17.40;6.38;;;;;;;;;;4917198;29;20051;-63
2023/05/20 13:52:57;;;;;;;14.07;6.70;;;;;;;;;;4932955;29;20060;-63
2023/05/20 13:55:28;;;;;;;14.45;6.15;;;;;;;;;;4925139;29;20082;-64
2023/05/20 13:57:58;;;;;;;11.32;5.55;;;;;;;;;;4952441;28;20061;-63
2023/05/20 14:00:28;;;;;;;11.40;4.70;;;;;;;;;;4939535;28;20061;-63
2023/05/20 14:02:59;;;;;;;14.23;5.80;;;;;;;;;;4971255;28;20046;-63
2023/05/20 14:05:31;;;;;;;13.65;6.38;;;;;;;;;;4932758;29;20416;-64
2023/05/20 14:08:02;;;;;;;13.15;5.68;;;;;;;;;;4919294;29;20548;-63
2023/05/20 14:10:32;;;;;;;11.45;6.28;;;;;;;;;;4913853;29;20059;-63
2023/05/20 14:13:03;;;;;;;13.73;5.57;;;;;;;;;;4898199;29;20055;-62
2023/05/20 14:15:36;;;;;;;13.95;5.45;;;;;;;;;;4905814;29;20059;-62
2023/05/20 14:18:07;;;;;;;10.95;5.20;;;;;;;;;;4913765;29;20555;-63
2023/05/20 14:20:37;;;;;;;9.80;5.47;;;;;;;;;;4911943;29;20491;-64
2023/05/20 14:23:08;;;;;;;11.10;5.80;;;;;;;;;;4882383;29;20071;-64
2023/05/20 14:25:38;;;;;;;12.85;6.25;;;;;;;;;;4923386;29;20051;-63
2023/05/20 14:28:09;;;;;;;19.40;6.60;;;;;;;;;;4932551;29;20054;-63
2023/05/20 14:30:39;;;;;;;11.20;5.72;;;;;;;;;;4932502;29;20434;-64
2023/05/20 14:33:09;;;;;;;12.52;5.93;;;;;;;;;;4932776;29;20051;-64
2023/05/20 14:35:41;;;;;;;13.80;5.10;;;;;;;;;;4933038;29;20181;-64
2023/05/20 14:38:11;;;;;;;12.77;5.63;;;;;;;;;;4932351;29;20172;-63
2023/05/20 14:40:42;;;;;;;12.35;5.47;;;;;;;;;;4932471;29;20055;-64
2023/05/20 14:43:12;;;;;;;10.65;5.70;;;;;;;;;;4938231;28;20059;-63
2023/05/20 14:45:45;;;;;;;10.73;5.28;;;;;;;;;;5006747;28;20049;-63
2023/05/20 14:48:15;;;;;;;9.30;4.82;;;;;;;;;;5020430;28;20042;-63
2023/05/20 14:50:45;;;;;;;9.30;4.95;;;;;;;;;;4959591;28;20054;-64
2023/05/20 14:53:18;;;;;;;12.85;6.07;;;;;;;;;;4938978;28;20254;-63
2023/05/20 14:55:48;;;;;;;11.15;6.00;;;;;;;;;;4975715;28;20055;-63
2023/05/20 14:58:19;;;;;;;13.90;5.97;;;;;;;;;;4964749;28;20468;-63
2023/05/20 15:00:49;;;;;;;10.40;6.10;;;;;;;;;;4954822;28;20066;-64